Time;durP1;ratioP1;P1;durP2;ratioP2;P2;SDS_P1;SDS_P2;PMS_P1;PMS_P2;Temp;Humidity;BMP_temperature;BMP_pressure;BME280_temperature;BME280_humidity;BME280_pressure;Samples;Min_cycle;Max_cycle;Signal;HPM_P1;HPM_P2
2022/11/01 00:00:07;;;;;;;97.40;55.28;;;12.20;56.60;;;;;;5025276;28;20666;-81
2022/11/01 00:02:33;;;;;;;105.47;56.55;;;12.20;70.20;;;;;;5023729;28;20209;-81
2022/11/01 00:04:58;;;;;;;112.30;58.63;;;12.20;95.90;;;;;;5025160;28;20194;-81
2022/11/01 00:07:24;;;;;;;111.38;57.55;;;12.30;99.90;;;;;;5023340;28;20190;-82
2022/11/01 00:09:49;;;;;;;120.88;59.40;;;12.30;99.90;;;;;;5026033;28;20186;-83
2022/11/01 00:12:15;;;;;;;116.78;58.30;;;12.30;99.90;;;;;;5026330;28;20179;-81
2022/11/01 00:14:41;;;;;;;112.43;57.05;;;12.40;99.90;;;;;;5023747;28;20712;-81
2022/11/01 00:17:06;;;;;;;111.05;56.70;;;12.30;99.90;;;;;;5023698;28;20195;-81
2022/11/01 00:19:32;;;;;;;107.07;57.00;;;12.30;99.90;;;;;;5023322;28;20191;-81
2022/11/01 00:21:57;;;;;;;108.15;57.28;;;13.10;99.90;;;;;;5023477;28;20179;-81
2022/11/01 00:24:23;;;;;;;100.10;54.53;;;12.40;99.90;;;;;;5024659;28;20264;-81
2022/11/01 00:26:50;;;;;;;96.43;56.33;;;12.30;99.90;;;;;;5024884;28;20789;-81
2022/11/01 00:29:16;;;;;;;100.53;56.58;;;12.30;99.90;;;;;;5024514;28;20194;-81
2022/11/01 00:31:42;;;;;;;98.93;55.88;;;12.30;99.90;;;;;;5023054;28;20222;-81
2022/11/01 00:34:08;;;;;;;95.65;55.00;;;12.30;99.90;;;;;;5025131;28;20215;-82
2022/11/01 00:36:35;;;;;;;99.95;55.90;;;12.40;99.90;;;;;;5023447;28;20203;-81
2022/11/01 00:39:01;;;;;;;92.72;54.67;;;12.10;99.90;;;;;;5024704;28;20194;-81
2022/11/01 00:41:27;;;;;;;107.95;58.70;;;12.20;99.90;;;;;;5023804;28;20191;-81
2022/11/01 00:43:52;;;;;;;102.90;56.97;;;12.20;99.90;;;;;;5023270;28;20191;-81
2022/11/01 00:46:18;;;;;;;90.10;54.22;;;12.10;99.90;;;;;;5023590;28;20209;-81
2022/11/01 00:48:44;;;;;;;102.20;56.13;;;12.20;99.90;;;;;;5024544;28;20206;-81
2022/11/01 00:51:10;;;;;;;104.68;56.00;;;12.10;99.90;;;;;;5025013;28;20229;-81
2022/11/01 00:53:35;;;;;;;114.60;58.70;;;12.20;99.90;;;;;;5022471;28;20228;-81
2022/11/01 00:56:03;;;;;;;90.00;55.07;;;12.20;99.90;;;;;;5023813;28;20206;-81
2022/11/01 00:58:29;;;;;;;93.80;53.47;;;12.20;99.90;;;;;;5022618;28;20599;-81
2022/11/01 01:00:55;;;;;;;100.55;54.10;;;12.30;99.90;;;;;;5024985;28;20245;-81
2022/11/01 01:03:21;;;;;;;97.15;54.42;;;12.40;99.90;;;;;;5025064;28;20206;-81
2022/11/01 01:05:49;;;;;;;89.30;52.25;;;12.20;99.90;;;;;;5027936;28;20298;-81
2022/11/01 01:08:14;;;;;;;101.13;55.67;;;12.30;99.90;;;;;;5027598;28;20187;-81
2022/11/01 01:10:40;;;;;;;106.65;57.25;;;12.30;99.90;;;;;;5027166;28;20179;-81
2022/11/01 01:13:06;;;;;;;96.65;55.30;;;12.30;99.90;;;;;;5027004;28;20187;-83
2022/11/01 01:15:32;;;;;;;91.22;52.53;;;12.30;99.90;;;;;;5026827;28;20215;-81
2022/11/01 01:17:57;;;;;;;91.80;53.55;;;12.30;99.90;;;;;;5027488;28;20183;-81
2022/11/01 01:20:23;;;;;;;84.50;51.72;;;12.30;99.90;;;;;;5028218;28;20586;-81
2022/11/01 01:22:49;;;;;;;86.85;52.45;;;12.30;99.90;;;;;;5027100;28;20260;-81
2022/11/01 01:25:15;;;;;;;86.25;51.92;;;12.30;99.90;;;;;;5043047;28;20206;-82
2022/11/01 01:27:41;;;;;;;80.05;51.08;;;12.30;99.90;;;;;;5027029;28;20289;-81
2022/11/01 01:30:07;;;;;;;81.78;50.42;;;12.30;99.90;;;;;;5026766;28;20324;-81
2022/11/01 01:32:33;;;;;;;78.55;50.83;;;12.30;99.90;;;;;;5026349;28;20187;-81
2022/11/01 01:34:59;;;;;;;86.97;52.55;;;12.50;99.90;;;;;;5026503;28;20183;-81
2022/11/01 01:37:25;;;;;;;78.68;50.97;;;12.30;99.90;;;;;;5027105;28;20198;-81
2022/11/01 01:39:50;;;;;;;77.68;49.28;;;12.30;99.90;;;;;;5027322;28;20187;-81
2022/11/01 01:42:30;;;;;;;76.22;48.25;;;12.40;99.90;;;;;;5026033;28;20190;-82
2022/11/01 01:44:56;;;;;;;72.25;47.95;;;12.40;99.90;;;;;;5027607;28;20198;-83
2022/11/01 01:47:27;;;;;;;70.38;47.38;;;12.50;99.90;;;;;;5026981;28;20182;-82
2022/11/01 01:49:59;;;;;;;74.07;48.50;;;12.30;99.90;;;;;;5025343;28;20186;-82
2022/11/01 01:52:26;;;;;;;69.60;47.80;;;12.30;99.90;;;;;;5026950;28;20252;-81
2022/11/01 01:54:52;;;;;;;71.90;48.28;;;12.40;99.90;;;;;;5025228;28;20194;-81
2022/11/01 01:57:19;;;;;;;72.50;49.30;;;12.40;99.90;;;;;;5026651;28;20218;-81
2022/11/01 01:59:45;;;;;;;67.85;47.63;;;12.30;99.90;;;;;;5041375;28;20179;-81
2022/11/01 02:02:13;;;;;;;77.93;49.75;;;12.30;99.90;;;;;;5026840;28;20194;-81
2022/11/01 02:04:50;;;;;;;65.60;46.80;;;12.30;99.90;;;;;;5026893;28;20281;-81
2022/11/01 02:07:15;;;;;;;68.80;46.40;;;12.30;99.90;;;;;;5026888;28;20332;-81
2022/11/01 02:09:43;;;;;;;61.53;44.58;;;12.30;99.90;;;;;;5026608;28;20266;-82
2022/11/01 02:12:11;;;;;;;67.18;45.42;;;12.30;99.90;;;;;;5025324;28;20684;-81
2022/11/01 02:14:41;;;;;;;68.03;46.88;;;12.20;99.90;;;;;;5041312;28;20183;-81
2022/11/01 02:17:32;;;;;;;69.80;46.65;;;12.30;99.90;;;;;;5025337;28;20191;-81
2022/11/01 02:20:31;;;;;;;65.32;45.88;;;12.20;99.90;;;;;;5027047;28;20174;-81
2022/11/01 02:23:15;;;;;;;73.78;47.60;;;12.30;99.90;;;;;;5025550;28;20678;-81
2022/11/01 02:25:50;;;;;;;66.03;44.58;;;12.20;99.90;;;;;;5025708;28;20285;-80
2022/11/01 02:28:46;;;;;;;67.22;45.83;;;12.20;99.90;;;;;;5026164;28;20182;-81
2022/11/01 02:31:25;;;;;;;69.07;46.42;;;12.20;99.90;;;;;;5041263;28;20194;-81
2022/11/01 02:34:22;;;;;;;73.40;48.03;;;12.20;99.90;;;;;;5041584;28;20175;-82
2022/11/01 02:36:56;;;;;;;67.28;45.47;;;12.30;99.90;;;;;;5041597;28;20210;-81
2022/11/01 02:39:37;;;;;;;66.53;45.38;;;12.20;99.90;;;;;;5025801;28;20210;-81
2022/11/01 02:42:05;;;;;;;76.07;47.92;;;12.10;99.90;;;;;;5024801;28;20181;-81
2022/11/01 02:44:35;;;;;;;75.55;48.65;;;12.10;99.90;;;;;;5040882;28;20205;-82
2022/11/01 02:47:02;;;;;;;72.85;48.47;;;12.10;99.90;;;;;;5024699;28;21264;-81
2022/11/01 02:49:41;;;;;;;77.10;48.15;;;12.20;99.90;;;;;;5024079;28;20209;-81
2022/11/01 02:52:11;;;;;;;76.57;48.15;;;12.00;99.90;;;;;;5025916;28;20171;-81
2022/11/01 02:54:43;;;;;;;67.95;46.83;;;12.00;99.90;;;;;;5024583;28;20183;-81
2022/11/01 02:57:30;;;;;;;77.70;48.70;;;12.00;99.90;;;;;;5024575;28;20305;-81
2022/11/01 03:00:03;;;;;;;73.40;47.38;;;11.80;99.90;;;;;;5026078;28;20182;-81
2022/11/01 03:02:40;;;;;;;75.38;47.30;;;11.80;99.90;;;;;;5025285;28;20187;-81
2022/11/01 03:05:18;;;;;;;77.43;50.10;;;11.80;99.90;;;;;;5026103;28;20240;-82
2022/11/01 03:07:48;;;;;;;77.40;49.63;;;11.80;99.90;;;;;;5027235;28;20191;-82
2022/11/01 03:10:14;;;;;;;70.03;47.75;;;11.70;99.90;;;;;;5042948;28;20222;-81
2022/11/01 03:13:09;;;;;;;72.97;49.10;;;11.70;99.90;;;;;;5023513;28;20688;-81
2022/11/01 03:15:41;;;;;;;84.65;50.35;;;12.50;99.90;;;;;;5025399;28;20242;-81
2022/11/01 03:18:18;;;;;;;79.55;49.63;;;11.70;99.90;;;;;;5025210;28;20225;-81
2022/11/01 03:20:58;;;;;;;75.90;48.97;;;11.70;99.90;;;;;;5025972;28;20228;-81
2022/11/01 03:23:32;;;;;;;73.83;49.97;;;11.70;99.90;;;;;;5039796;28;20209;-81
2022/11/01 03:26:01;;;;;;;78.60;50.20;;;11.70;99.90;;;;;;5025425;28;20611;-81
2022/11/01 03:28:40;;;;;;;93.17;51.53;;;11.80;99.90;;;;;;5024112;28;20183;-80
2022/11/01 03:31:17;;;;;;;86.75;51.60;;;11.60;99.90;;;;;;5024665;28;20179;-83
2022/11/01 03:33:47;;;;;;;72.47;49.97;;;11.70;99.90;;;;;;5024300;28;20201;-82
2022/11/01 03:36:17;;;;;;;79.90;51.90;;;11.70;99.90;;;;;;5025405;28;20591;-81
2022/11/01 03:38:50;;;;;;;74.43;50.90;;;11.70;99.90;;;;;;5024076;28;20209;-81
2022/11/01 03:41:17;;;;;;;83.15;51.97;;;11.90;99.90;;;;;;5025207;28;20197;-83
2022/11/01 03:43:44;;;;;;;90.78;51.22;;;11.90;99.90;;;;;;5023618;28;20207;-81
2022/11/01 03:46:09;;;;;;;93.00;53.47;;;12.50;99.90;;;;;;5024274;28;20202;-81
2022/11/01 03:48:39;;;;;;;99.68;54.45;;;11.90;99.90;;;;;;5023301;28;20182;-81
2022/11/01 03:51:05;;;;;;;87.78;51.80;;;12.30;99.90;;;;;;5025303;28;20191;-82
2022/11/01 03:53:31;;;;;;;84.63;51.92;;;11.90;99.90;;;;;;5024531;28;20683;-81
2022/11/01 03:55:56;;;;;;;87.55;51.97;;;11.80;99.90;;;;;;5040273;28;20210;-81
2022/11/01 03:58:22;;;;;;;92.13;53.67;;;11.80;99.90;;;;;;5024522;28;20601;-81
2022/11/01 04:00:49;;;;;;;83.18;52.13;;;12.20;99.90;;;;;;5023496;28;20193;-81
2022/11/01 04:03:15;;;;;;;81.97;53.17;;;11.80;99.90;;;;;;5024095;28;20293;-81
2022/11/01 04:05:41;;;;;;;83.13;53.22;;;11.90;99.90;;;;;;5024749;28;20245;-81
2022/11/01 04:08:09;;;;;;;79.23;51.83;;;12.80;99.90;;;;;;5024763;28;20186;-81
2022/11/01 04:10:35;;;;;;;78.70;50.50;;;12.00;99.90;;;;;;5023697;28;20289;-81
2022/11/01 04:13:01;;;;;;;69.65;47.83;;;12.00;99.90;;;;;;5024755;28;20551;-82
2022/11/01 04:21:10;;;;;;;70.03;49.22;;;11.90;99.90;;;;;;5024990;28;20186;-81
2022/11/01 04:23:35;;;;;;;70.60;48.05;;;11.80;99.90;;;;;;5022961;28;21154;-81
2022/11/01 04:26:03;;;;;;;65.23;47.93;;;11.80;99.90;;;;;;5023585;28;20285;-81
2022/11/01 04:28:29;;;;;;;68.25;47.63;;;11.90;99.90;;;;;;5024227;28;20233;-81
2022/11/01 04:30:54;;;;;;;61.72;45.83;;;11.80;99.90;;;;;;5024743;28;20187;-81
2022/11/01 04:33:20;;;;;;;58.97;45.25;;;11.80;99.90;;;;;;5024176;28;20674;-81
2022/11/01 04:35:46;;;;;;;66.72;46.85;;;11.90;99.90;;;;;;5023588;28;20620;-81
2022/11/01 04:38:12;;;;;;;65.78;47.85;;;11.80;99.90;;;;;;5023744;28;20198;-80
2022/11/01 04:40:38;;;;;;;67.88;46.92;;;11.70;99.90;;;;;;5028232;28;20191;-81
2022/11/01 04:43:04;;;;;;;69.00;48.97;;;11.70;99.90;;;;;;5042695;28;20183;-81
2022/11/01 04:45:30;;;;;;;67.47;47.22;;;11.70;99.90;;;;;;5026854;28;20539;-81
2022/11/01 04:48:07;;;;;;;60.33;46.33;;;11.80;99.90;;;;;;5026890;28;20179;-81
2022/11/01 04:50:34;;;;;;;66.60;47.00;;;11.70;99.90;;;;;;5043772;28;20232;-81
2022/11/01 04:53:00;;;;;;;61.97;46.45;;;11.70;99.90;;;;;;5026457;28;20175;-81
2022/11/01 04:55:27;;;;;;;67.78;48.17;;;11.80;99.90;;;;;;5042624;28;20682;-81
2022/11/01 04:57:52;;;;;;;67.88;46.92;;;11.80;99.90;;;;;;5026742;28;20674;-81
2022/11/01 05:00:18;;;;;;;67.20;47.55;;;11.70;99.90;;;;;;5026745;28;20206;-82
2022/11/01 05:02:44;;;;;;;61.15;45.63;;;11.70;99.90;;;;;;5027633;28;20222;-81
2022/11/01 05:05:10;;;;;;;57.63;44.05;;;11.70;99.90;;;;;;5027013;28;20221;-81
2022/11/01 05:07:36;;;;;;;62.22;46.47;;;11.80;99.90;;;;;;5026307;28;20183;-81
2022/11/01 05:10:03;;;;;;;62.80;45.88;;;11.70;99.90;;;;;;5026309;28;20241;-81
2022/11/01 05:12:29;;;;;;;59.50;45.53;;;11.60;99.90;;;;;;5026136;28;20229;-81
2022/11/01 05:14:54;;;;;;;60.03;46.00;;;11.70;99.90;;;;;;5027773;28;20580;-81
2022/11/01 05:17:20;;;;;;;61.00;47.60;;;12.20;99.90;;;;;;5044712;22;20230;-84
2022/11/01 05:19:46;;;;;;;59.30;46.10;;;11.80;99.90;;;;;;5030063;28;20175;-86
2022/11/01 05:22:12;;;;;;;61.95;46.13;;;11.60;99.90;;;;;;5039092;28;20185;-84
2022/11/01 05:24:37;;;;;;;66.53;47.25;;;11.60;99.90;;;;;;5049203;28;20198;-82
2022/11/01 05:27:03;;;;;;;57.17;44.83;;;11.80;99.90;;;;;;5018171;28;20294;-85
2022/11/01 05:29:29;;;;;;;62.70;46.25;;;11.60;99.90;;;;;;5007403;28;20180;-85
2022/11/01 05:31:54;;;;;;;58.20;44.33;;;11.70;99.90;;;;;;5009004;28;20589;-84
2022/11/01 05:34:20;;;;;;;55.23;43.43;;;11.70;99.90;;;;;;5010183;28;20538;-83
2022/11/01 05:36:46;;;;;;;56.60;44.37;;;12.00;99.90;;;;;;5022953;28;20203;-83
2022/11/01 05:39:11;;;;;;;57.13;44.87;;;11.80;99.90;;;;;;5008136;28;20222;-83
2022/11/01 05:41:39;;;;;;;55.40;42.97;;;11.70;99.90;;;;;;5008513;28;20218;-83
2022/11/01 05:44:05;;;;;;;54.67;44.00;;;11.60;99.90;;;;;;5008588;28;20291;-85
2022/11/01 05:46:30;;;;;;;53.00;42.67;;;11.70;99.90;;;;;;5007369;28;20301;-84
2022/11/01 05:48:56;;;;;;;52.65;41.17;;;11.90;99.90;;;;;;5008645;28;20176;-83
2022/11/01 05:51:22;;;;;;;53.50;42.78;;;11.80;99.90;;;;;;5007914;28;20671;-82
2022/11/01 05:53:48;;;;;;;50.97;41.83;;;11.60;99.90;;;;;;5008041;28;20179;-84
2022/11/01 05:56:15;;;;;;;53.55;41.95;;;11.60;99.90;;;;;;5023445;28;20207;-84
2022/11/01 05:58:41;;;;;;;51.20;41.20;;;12.00;99.90;;;;;;5010220;28;20183;-83
2022/11/01 06:01:07;;;;;;;50.90;40.28;;;11.90;99.90;;;;;;5007499;28;20190;-83
2022/11/01 06:03:33;;;;;;;46.92;39.75;;;12.50;99.90;;;;;;5007809;28;20207;-85
2022/11/01 06:06:20;;;;;;;50.33;41.20;;;11.80;99.90;;;;;;5028901;28;20764;-83
2022/11/01 06:08:46;;;;;;;51.33;40.88;;;11.70;99.90;;;;;;5001974;28;20191;-84
2022/11/01 06:11:12;;;;;;;47.58;39.72;;;11.80;99.90;;;;;;5008031;28;20175;-86
2022/11/01 06:13:37;;;;;;;51.88;41.45;;;11.90;99.90;;;;;;5006500;28;20184;-84
2022/11/01 06:16:04;;;;;;;51.43;41.60;;;11.60;99.90;;;;;;5007741;28;20224;-83
2022/11/01 06:18:30;;;;;;;46.78;39.22;;;11.60;99.90;;;;;;5005995;28;20207;-83
2022/11/01 06:20:58;;;;;;;46.78;39.25;;;11.70;99.90;;;;;;5006183;28;20195;-83
2022/11/01 06:23:24;;;;;;;48.50;40.05;;;11.60;99.90;;;;;;5006079;28;20230;-82
2022/11/01 06:25:49;;;;;;;46.25;38.28;;;11.70;99.90;;;;;;5006063;28;20234;-84
2022/11/01 06:28:15;;;;;;;47.28;37.90;;;12.10;99.90;;;;;;5007677;28;20183;-84
2022/11/01 06:30:42;;;;;;;46.05;38.85;;;12.30;99.90;;;;;;5005923;28;20218;-85
2022/11/01 06:33:08;;;;;;;43.15;36.47;;;11.70;99.90;;;;;;5024284;28;20723;-83
2022/11/01 06:35:34;;;;;;;42.75;36.47;;;11.70;99.90;;;;;;5007408;28;20342;-86
2022/11/01 06:38:07;;;;;;;44.47;36.55;;;11.80;99.90;;;;;;5005451;28;20270;-86
2022/11/01 06:40:34;;;;;;;40.83;35.50;;;11.70;99.90;;;;;;5021186;28;20223;-86
2022/11/01 06:43:01;;;;;;;43.70;33.80;;;12.50;99.90;;;;;;5004288;28;20210;-86
2022/11/01 06:45:29;;;;;;;38.67;31.27;;;11.90;99.90;;;;;;5005499;28;20650;-86
2022/11/01 06:47:55;;;;;;;38.65;31.38;;;11.90;96.60;;;;;;5021289;28;20191;-86
2022/11/01 06:50:21;;;;;;;35.80;29.50;;;12.10;95.10;;;;;;5005330;28;20191;-86
2022/11/01 06:52:46;;;;;;;36.22;29.40;;;12.50;70.70;;;;;;5003010;28;20711;-86
2022/11/01 06:55:12;;;;;;;34.45;28.30;;;12.10;38.60;;;;;;5007750;28;20196;-85
2022/11/01 06:57:38;;;;;;;31.52;27.40;;;12.10;8.70;;;;;;5003914;28;20192;-85
2022/11/01 07:00:04;;;;;;;28.20;24.48;;;12.20;1.00;;;;;;5004411;28;20176;-86
2022/11/01 07:02:30;;;;;;;29.15;23.85;;;12.30;1.00;;;;;;5002852;28;20266;-86
2022/11/01 07:04:55;;;;;;;24.98;21.85;;;12.30;1.00;;;;;;5004755;28;20783;-87
2022/11/01 07:07:21;;;;;;;24.50;21.20;;;12.40;1.00;;;;;;5004776;28;20857;-87
2022/11/01 07:09:47;;;;;;;24.38;21.00;;;12.60;99.90;;;;;;5002143;28;20275;-84
2022/11/01 07:12:12;;;;;;;23.30;20.65;;;12.60;99.90;;;;;;5004302;28;20274;-86
2022/11/01 07:14:38;;;;;;;21.45;19.17;;;12.60;1.00;;;;;;5003496;28;20210;-87
2022/11/01 07:17:03;;;;;;;21.55;19.27;;;12.80;1.00;;;;;;5004136;28;20235;-86
2022/11/01 07:19:29;;;;;;;22.15;19.75;;;12.80;99.90;;;;;;5005224;28;20214;-85
2022/11/01 07:21:55;;;;;;;20.35;18.15;;;13.50;99.90;;;;;;5006048;28;20191;-86
2022/11/01 07:24:20;;;;;;;22.70;20.17;;;12.90;99.90;;;;;;5004215;28;20213;-87
2022/11/01 07:26:46;;;;;;;21.95;19.65;;;13.00;99.90;;;;;;5006126;28;20203;-87
2022/11/01 07:29:12;;;;;;;22.50;20.20;;;13.00;1.00;;;;;;5004161;28;20179;-86
2022/11/01 07:31:37;;;;;;;22.75;20.42;;;13.10;1.00;;;;;;5003955;28;20179;-87
2022/11/01 07:34:04;;;;;;;22.38;19.98;;;13.30;99.90;;;;;;5003750;28;20233;-87
2022/11/01 07:36:29;;;;;;;21.23;18.98;;;13.00;99.90;;;;;;5004597;28;20199;-86
2022/11/01 07:38:55;;;;;;;20.35;17.38;;;13.10;99.90;;;;;;5004042;28;20175;-87
2022/11/01 07:41:21;;;;;;;19.50;17.48;;;13.10;1.00;;;;;;5003225;28;20271;-85
2022/11/01 07:43:47;;;;;;;22.50;19.17;;;13.20;99.90;;;;;;5003553;28;20195;-86
2022/11/01 07:46:15;;;;;;;19.90;17.70;;;13.40;99.90;;;;;;5005220;28;20620;-88
2022/11/01 07:48:43;;;;;;;19.65;17.42;;;13.30;99.90;;;;;;5010760;28;20203;-87
2022/11/01 07:54:50;;;;;;;12.93;10.20;;;13.50;1.00;;;;;;4969022;28;20195;-81
2022/11/01 07:57:16;;;;;;;10.70;8.50;;;13.70;1.00;;;;;;5014099;28;20579;-82
2022/11/01 07:59:41;;;;;;;8.73;6.80;;;13.80;1.00;;;;;;5007457;28;20187;-83
2022/11/01 08:02:08;;;;;;;9.90;8.10;;;14.20;1.00;;;;;;5008579;28;20203;-83
2022/11/01 08:04:34;;;;;;;9.55;7.38;;;14.10;99.90;;;;;;5006594;28;20216;-83
2022/11/01 08:06:59;;;;;;;9.38;6.68;;;14.30;99.90;;;;;;5007249;28;20634;-84
2022/11/01 08:09:25;;;;;;;10.18;7.13;;;14.30;99.90;;;;;;5006982;28;20187;-83
2022/11/01 08:11:50;;;;;;;9.13;6.88;;;14.50;99.90;;;;;;5007720;28;20955;-82
2022/11/01 08:14:16;;;;;;;10.88;6.75;;;14.50;99.90;;;;;;5009590;28;20623;-82
2022/11/01 08:16:41;;;;;;;12.02;7.32;;;14.60;99.90;;;;;;5011775;28;20195;-82
2022/11/01 08:19:09;;;;;;;8.65;5.88;;;14.70;99.90;;;;;;5010688;28;20654;-82
2022/11/01 08:21:34;;;;;;;8.95;6.40;;;14.80;99.90;;;;;;5009844;28;20202;-82
2022/11/01 08:24:00;;;;;;;10.75;5.57;;;14.90;99.90;;;;;;5010676;28;20203;-82
2022/11/01 08:26:25;;;;;;;9.40;6.32;;;14.90;99.90;;;;;;5009742;28;20273;-83
2022/11/01 08:28:51;;;;;;;6.90;5.80;;;15.00;99.90;;;;;;5011093;28;20176;-81
2022/11/01 08:31:17;;;;;;;7.75;5.07;;;14.90;99.90;;;;;;5010696;28;20196;-82
2022/11/01 08:33:42;;;;;;;7.28;5.93;;;15.00;99.90;;;;;;5012431;28;20211;-82
2022/11/01 08:36:08;;;;;;;7.68;5.75;;;14.90;99.90;;;;;;5012839;28;20204;-82
2022/11/01 08:38:34;;;;;;;9.57;5.25;;;14.90;99.90;;;;;;5009081;28;20188;-88
2022/11/01 08:40:59;;;;;;;6.25;4.60;;;15.00;99.90;;;;;;5007599;28;20187;-87
2022/11/01 08:43:25;;;;;;;7.20;4.65;;;15.10;99.90;;;;;;5007174;28;20679;-87
2022/11/01 08:45:51;;;;;;;8.45;5.40;;;15.30;99.90;;;;;;5007598;28;20290;-87
2022/11/01 08:48:16;;;;;;;8.43;4.55;;;15.30;99.90;;;;;;5007621;28;20214;-87
2022/11/01 08:50:43;;;;;;;7.13;4.15;;;15.40;99.90;;;;;;5007481;28;20263;-87
2022/11/01 08:53:11;;;;;;;6.50;4.07;;;15.60;94.60;;;;;;5007574;28;20600;-87
2022/11/01 08:55:43;;;;;;;6.07;3.90;;;15.70;80.90;;;;;;5007930;28;20200;-86
2022/11/01 08:58:09;;;;;;;7.93;4.45;;;15.80;72.00;;;;;;5026625;28;21147;-86
2022/11/01 09:00:35;;;;;;;5.00;4.18;;;15.90;59.20;;;;;;5007146;28;20187;-88
2022/11/01 09:03:01;;;;;;;7.05;4.35;;;16.00;55.90;;;;;;5042167;22;20275;-81
2022/11/01 09:05:30;;;;;;;7.05;4.22;;;15.90;49.80;;;;;;5047766;28;20230;-84
2022/11/01 09:07:57;;;;;;;6.45;4.28;;;16.00;65.20;;;;;;5047039;28;20174;-84
2022/11/01 09:10:23;;;;;;;7.18;4.35;;;15.90;45.30;;;;;;5036920;28;20667;-83
2022/11/01 09:12:49;;;;;;;13.02;4.63;;;16.00;46.20;;;;;;5039655;28;20531;-83
2022/11/01 09:15:14;;;;;;;4.63;3.92;;;15.80;42.20;;;;;;5029752;28;20197;-82
2022/11/01 09:17:40;;;;;;;6.05;4.40;;;15.90;46.80;;;;;;5033642;28;20255;-83
2022/11/01 09:20:08;;;;;;;4.82;3.83;;;16.00;41.10;;;;;;5039194;28;20261;-83
2022/11/01 09:22:36;;;;;;;6.43;3.65;;;16.10;38.70;;;;;;5036645;28;20190;-83
2022/11/01 09:25:02;;;;;;;6.35;3.95;;;16.30;30.00;;;;;;5037538;28;20198;-81
2022/11/01 09:27:28;;;;;;;6.20;3.90;;;16.30;25.60;;;;;;5045193;28;20178;-84
2022/11/01 09:29:53;;;;;;;6.15;3.92;;;16.40;22.60;;;;;;5043995;28;20179;-81
2022/11/01 09:32:20;;;;;;;4.95;3.22;;;16.40;34.10;;;;;;5044782;28;20178;-83
2022/11/01 09:34:47;;;;;;;5.25;3.25;;;16.60;13.70;;;;;;5037158;28;20186;-83
2022/11/01 09:37:15;;;;;;;8.18;3.88;;;16.60;6.40;;;;;;5036776;28;20305;-82
2022/11/01 09:39:41;;;;;;;7.65;3.60;;;16.60;4.00;;;;;;5038812;28;20186;-81
2022/11/01 09:42:27;;;;;;;5.90;4.00;;;16.70;2.50;;;;;;5040372;28;20765;-83
2022/11/01 09:44:56;;;;;;;5.32;3.90;;;16.80;1.00;;;;;;5044353;28;20194;-82
2022/11/01 09:47:26;;;;;;;7.18;3.35;;;16.70;1.00;;;;;;5035484;28;20182;-80
2022/11/01 09:50:10;;;;;;;4.72;3.65;;;16.80;1.00;;;;;;5036531;28;20658;-81
2022/11/01 09:52:36;;;;;;;5.05;3.72;;;16.70;1.00;;;;;;5037050;28;20174;-82
2022/11/01 09:55:02;;;;;;;5.13;3.42;;;16.70;1.00;;;;;;5038383;28;20187;-83
2022/11/01 09:57:35;;;;;;;5.78;3.50;;;16.70;1.00;;;;;;5044912;28;20601;-83
2022/11/01 10:00:12;;;;;;;5.10;3.38;;;16.80;1.00;;;;;;5034550;28;20190;-82
2022/11/01 10:02:45;;;;;;;5.53;3.63;;;16.80;1.00;;;;;;5036323;28;20216;-83
2022/11/01 10:05:29;;;;;;;4.88;3.10;;;16.90;1.00;;;;;;5038400;28;20841;-83
2022/11/01 10:07:57;;;;;;;5.57;3.50;;;16.70;1.00;;;;;;5052845;28;20356;-82
2022/11/01 10:10:32;;;;;;;4.20;3.45;;;16.60;1.00;;;;;;5037409;28;20259;-83
2022/11/01 10:13:16;;;;;;;6.20;3.40;;;16.60;1.00;;;;;;5039184;28;20654;-85
2022/11/01 10:16:07;;;;;;;6.47;3.10;;;16.80;1.00;;;;;;5033979;28;20585;-83
2022/11/01 10:18:59;;;;;;;6.25;3.15;;;17.00;1.00;;;;;;5035692;28;20272;-83
2022/11/01 10:21:30;;;;;;;7.65;3.67;;;17.20;1.00;;;;;;5036676;28;20193;-84
2022/11/01 10:24:00;;;;;;;6.05;3.35;;;17.30;1.00;;;;;;5035455;28;20579;-83
2022/11/01 10:26:29;;;;;;;5.25;3.15;;;17.40;1.00;;;;;;5043292;28;20997;-81
2022/11/01 10:29:12;;;;;;;7.20;3.40;;;17.30;1.00;;;;;;5035784;28;20174;-84
2022/11/01 10:31:48;;;;;;;6.32;3.47;;;17.30;1.00;;;;;;5037202;28;20319;-85
2022/11/01 10:34:27;;;;;;;5.05;3.20;;;17.30;1.00;;;;;;5036487;28;20688;-85
2022/11/01 10:37:05;;;;;;;6.22;3.75;;;17.30;1.00;;;;;;5036156;28;20206;-85
2022/11/01 10:39:54;;;;;;;5.85;3.30;;;17.30;1.00;;;;;;5035789;28;20179;-86
2022/11/01 10:42:20;;;;;;;4.88;3.15;;;17.30;1.00;;;;;;5036314;28;20185;-85
2022/11/01 10:44:54;;;;;;;5.45;3.22;;;17.20;1.00;;;;;;5034921;28;20209;-85
2022/11/01 10:47:21;;;;;;;3.97;3.08;;;17.20;1.00;;;;;;5037032;28;20308;-85
2022/11/01 10:50:13;;;;;;;5.00;3.30;;;17.30;1.00;;;;;;5035723;28;20187;-84
2022/11/01 10:52:49;;;;;;;5.68;2.65;;;17.30;1.00;;;;;;5033876;28;20179;-83
2022/11/01 10:55:29;;;;;;;6.97;3.38;;;17.40;1.00;;;;;;5033644;28;20191;-85
2022/11/01 10:58:01;;;;;;;5.28;2.90;;;17.30;1.00;;;;;;5036400;28;20182;-84
2022/11/01 11:00:31;;;;;;;5.63;3.38;;;17.30;1.00;;;;;;5035654;28;20197;-85
2022/11/01 11:03:06;;;;;;;5.60;3.33;;;17.30;1.00;;;;;;5036696;28;20201;-83
2022/11/01 11:05:32;;;;;;;5.90;3.22;;;17.30;1.00;;;;;;5038406;28;20768;-85
2022/11/01 11:08:03;;;;;;;4.55;3.30;;;17.30;1.00;;;;;;5037295;28;20198;-84
2022/11/01 11:10:29;;;;;;;5.32;2.88;;;17.30;1.00;;;;;;5037864;28;20654;-84
2022/11/01 11:13:03;;;;;;;8.38;3.60;;;17.20;1.00;;;;;;5044492;28;20222;-84
2022/11/01 11:15:51;;;;;;;5.72;3.20;;;17.10;1.00;;;;;;5037881;28;20240;-84
2022/11/01 11:18:24;;;;;;;5.97;3.40;;;17.10;1.00;;;;;;5044760;28;20178;-85
2022/11/01 11:20:52;;;;;;;5.60;3.03;;;17.00;1.00;;;;;;5036233;28;20175;-83
2022/11/01 11:23:21;;;;;;;5.78;3.25;;;17.10;1.00;;;;;;5035704;28;20183;-84
2022/11/01 11:25:49;;;;;;;5.78;3.25;;;17.10;1.00;;;;;;5035138;28;20728;-86
2022/11/01 11:28:41;;;;;;;6.57;3.30;;;17.00;1.00;;;;;;5037403;28;20173;-85
2022/11/01 11:31:26;;;;;;;6.35;3.45;;;17.00;1.00;;;;;;5044986;28;20179;-84
2022/11/01 11:34:15;;;;;;;4.78;3.90;;;17.10;1.00;;;;;;5037478;28;20269;-88
2022/11/01 11:36:45;;;;;;;8.20;4.65;;;17.10;1.00;;;;;;5051354;28;20241;-84
2022/11/01 11:39:27;;;;;;;9.93;5.38;;;17.10;1.00;;;;;;5037513;28;20179;-84
2022/11/01 11:41:52;;;;;;;6.68;4.22;;;17.20;1.00;;;;;;5036101;28;20657;-83
2022/11/01 11:44:33;;;;;;;10.40;5.72;;;17.40;1.00;;;;;;5037605;28;20217;-85
2022/11/01 11:47:01;;;;;;;12.73;7.47;;;17.60;1.00;;;;;;5051264;28;20202;-84
2022/11/01 11:49:28;;;;;;;9.50;5.72;;;17.70;1.00;;;;;;5037806;28;20205;-84
2022/11/01 11:51:54;;;;;;;8.43;3.97;;;17.70;1.00;;;;;;5043113;28;20184;-85
2022/11/01 11:54:23;;;;;;;9.73;6.47;;;17.60;1.00;;;;;;5035956;28;20182;-87
2022/11/01 11:56:51;;;;;;;8.95;4.82;;;17.60;1.00;;;;;;5036033;28;20744;-87
2022/11/01 11:59:31;;;;;;;12.93;7.63;;;17.50;1.00;;;;;;5036333;28;20669;-88
2022/11/01 12:02:18;;;;;;;11.60;6.63;;;17.30;1.00;;;;;;5043214;28;20471;-85
2022/11/01 12:04:55;;;;;;;11.93;7.57;;;17.20;1.00;;;;;;5046527;28;20623;-87
2022/11/01 12:07:24;;;;;;;10.35;5.90;;;17.00;1.00;;;;;;5035017;28;20708;-87
2022/11/01 12:09:50;;;;;;;8.30;5.28;;;16.90;1.00;;;;;;5043146;28;20192;-86
2022/11/01 12:12:24;;;;;;;10.23;6.38;;;16.80;1.00;;;;;;5045375;28;20174;-86
2022/11/01 12:14:50;;;;;;;10.00;6.25;;;16.90;1.00;;;;;;5034114;28;20221;-87
2022/11/01 12:17:23;;;;;;;9.32;5.70;;;16.90;1.00;;;;;;5039412;28;20574;-86
2022/11/01 12:19:48;;;;;;;11.13;7.60;;;16.90;1.00;;;;;;5038589;28;20178;-86
2022/11/01 12:22:14;;;;;;;13.95;7.72;;;16.80;1.00;;;;;;5038746;28;20186;-85
2022/11/01 12:24:48;;;;;;;9.25;6.60;;;16.80;1.00;;;;;;5035821;28;20854;-86
2022/11/01 12:27:19;;;;;;;8.55;6.53;;;16.80;1.00;;;;;;5035303;28;20205;-86
2022/11/01 12:29:50;;;;;;;6.35;4.38;;;16.90;1.00;;;;;;5046322;28;20178;-80
2022/11/01 12:32:22;;;;;;;7.05;4.97;;;17.00;1.00;;;;;;5052554;28;20269;-86
2022/11/01 12:34:51;;;;;;;8.00;3.38;;;17.00;1.00;;;;;;5044967;28;20178;-86
2022/11/01 12:37:35;;;;;;;5.00;2.08;;;17.00;1.00;;;;;;5044848;28;20237;-86
2022/11/01 12:40:02;;;;;;;4.70;3.10;;;17.10;1.00;;;;;;5035884;28;20179;-87
2022/11/01 12:42:37;;;;;;;5.28;2.83;;;17.00;1.00;;;;;;5041153;28;20281;-86
2022/11/01 12:45:25;;;;;;;3.40;2.15;;;17.00;1.00;;;;;;5035894;28;20202;-86
2022/11/01 12:47:58;;;;;;;1.95;1.60;;;17.10;1.00;;;;;;5019565;28;20186;-86
2022/11/01 12:50:49;;;;;;;2.53;1.60;;;17.10;1.00;;;;;;5038977;28;20179;-86
2022/11/01 12:53:20;;;;;;;3.08;1.80;;;17.10;1.00;;;;;;5045559;28;20175;-87
2022/11/01 12:55:46;;;;;;;2.85;1.50;;;17.10;1.00;;;;;;5036336;28;20213;-86